Abraham Lincoln Capital Airport
KSPI : rendu visible

Aérodrome :











RETROUVEZ-NOUS SUR...

 
LOGIN :

S'inscrire | Disclaimer

   EN    FR    IT 

 









Légende :    VFR   VFR Marginal   IFR   IFR Intensif   IFR Très Intensif
Visi : 
Plafond : 
>= 8 km
>= 3000ft
5 à 8 km
1000 à 3000 ft
1500m à 5 km
500 à 1000 ft
800 à 1500m
200 à 500 ft
< 800m
< 200 ft
Symboles :   Orages  Brouillard  Fortes neiges  Fortes précipitations  Vent > 20 kt






- Altitude de l'aérodrome : 598 ft
- Code IATA : SPI


KSPI - Abraham Lincoln Capital

DERNIER METAR :
  • 162352Z 10005KT 6SM HZ CLR 02/M02 A3022 RMK AO2 SLP239 T00171022 10072 20017 55011

METARs EXPIRÉS :
  • 162252Z 10005KT 5SM HZ CLR 03/M02 A3021 RMK AO2 SLP237 T00281017
  • 162152Z 09007KT 6SM HZ CLR 05/M01 A3023 RMK AO2 SLP244 T00501011

TAF KSPI
Valide du 17 à 00h jusqu'au 18 à 00h UTC


162320Z 1700/1724 11006KT P6SM FEW250
TEMPO 1700/1702 5SM HZ
FM171500 17007KT P6SM VCSH OVC100
FM172100 20005KT 5SM -RA OVC035



MET'MAP, la Météo Aéronautique d'un coup d'oeil ! - Copyright ORBIFLY Décembre 2007 - Disclaimer

ORBIFLY MET'MAP TEAM :

Programmation & Développement : Alexandra Zaïnal
Conception & Développement : Baudouin d'Aumeries
Co-Programmation & Développement : Marc-Olivier Méhu
Soutien technique & logistique : Manuel Goepfert

Contact : metmap@orbifly.com




SOURCES & CREDITS :

   NOAA       Earth
Advisory